Aérodrome :
LOGIN :

S'inscrire | Disclaimer

   EN    FR    IT 

 










Légende :    VFR   VFR Marginal   IFR   IFR Intensif   IFR Très Intensif
Visi : 
Plafond : 
>= 8 km
>= 3000ft
5 à 8 km
1000 à 3000 ft
1500m à 5 km
500 à 1000 ft
800 à 1500m
200 à 500 ft
< 800m
< 200 ft
Symboles :   Orages  Brouillard  Fortes neiges  Fortes précipitations  Vent > 20 kt
SIGMETs :   Divers  Orages  Givrage  Turbulence  Onde Orograph.  Cendres Volcan.






- Altitude de l'aérodrome : 1411 ft
- Code IATA : SZG


LOWS - Salzburg

DERNIER METAR :
  • 291050Z 25010KT 220V290 9999 -SHRASN FEW009 SCT032 BKN042 02/M01 Q1012 NOSIG

METARs EXPIRÉS :
  • 291020Z 28010KT 9999 -SHRASN FEW020 SCT050 BKN065 04/M02 Q1012 NOSIG
  • 290950Z 28011G21KT 9999 VCSH FEW038 BKN050 04/M04 Q1011 NOSIG
  • 290920Z 27010KT 9999 FEW038 BKN055 BKN300 04/M04 Q1011 NOSIG
  • 290850Z 27011KT 9999 FEW038 BKN060 BKN300 04/M04 Q1011 NOSIG
  • 290820Z 27017G31KT 9999 FEW028 SCT050 BKN070 04/M04 Q1011 NOSIG

TAF TAF LOWS
Valide du 29 à 06h jusqu'au 30 à 06h UTC


290515Z 2906/3006 27008KT 9999 SCT035 BKN050 TX05/2912Z TN01/2906Z
TEMPO 2906/2908 27015G30KT 2000 SHSN SCT008 BKN014
TEMPO 2908/2916 28015G30KT -SNRA BKN035
TEMPO 2916/2924 27015G25KT 2000 SHSN BKN012
TEMPO 3000/3006 16008KT 4000 -SHSN SCT012 BKN020



MET'MAP, la Météo Aéronautique d'un coup d'oeil ! - Copyright ORBIFLY Décembre 2007 - Disclaimer

ORBIFLY MET'MAP TEAM :

Programmation & Développement : Alexandra Zaïnal
Sur une idée originale de : Baudouin d'Aumeries
Assistance à la programmation : Marc-Olivier Méhu
Soutien technique & logistique : Manuel Goepfert

Contact : metmap@orbifly.com




SOURCES & CREDITS :

   NOAA